Time;durP1;ratioP1;P1;durP2;ratioP2;P2;SDS_P1;SDS_P2;PMS_P1;PMS_P2;Temp;Humidity;BMP_temperature;BMP_pressure;BME280_temperature;BME280_humidity;BME280_pressure;Samples;Min_cycle;Max_cycle;Signal;HPM_P1;HPM_P2
2021/12/07 00:00:20;;;;;;;5.88;5.32;;;1.90;99.90;;;;;;5073924;28;20508;-82
2021/12/07 00:02:46;;;;;;;5.85;3.45;;;1.80;99.90;;;;;;5090766;28;20048;-82
2021/12/07 00:05:12;;;;;;;;;;;1.90;99.90;;;;;;5091977;28;20036;-83
2021/12/07 00:07:42;;;;;;;4.18;3.75;;;1.80;99.90;;;;;;5091451;28;19927;-82
2021/12/07 00:10:08;;;;;;;8.93;4.57;;;1.80;99.90;;;;;;5092854;28;20040;-83
2021/12/07 00:12:38;;;;;;;7.30;5.38;;;1.80;99.90;;;;;;5124354;27;20047;-84
2021/12/07 00:15:04;;;;;;;7.72;5.78;;;1.80;99.90;;;;;;5075128;28;20051;-82
2021/12/07 00:17:32;;;;;;;6.47;4.30;;;1.80;99.90;;;;;;5105993;28;20044;-80
2021/12/07 00:19:59;;;;;;;10.05;5.60;;;2.10;99.90;;;;;;5091365;28;20044;-79
2021/12/07 00:22:25;;;;;;;8.38;5.85;;;1.80;99.90;;;;;;5083594;28;20059;-81
2021/12/07 00:24:51;;;;;;;8.73;5.95;;;1.80;99.90;;;;;;5090716;28;20108;-80
2021/12/07 00:27:17;;;;;;;9.20;4.97;;;1.70;99.90;;;;;;5090881;28;20076;-81
2021/12/07 00:29:44;;;;;;;;;;;1.80;99.90;;;;;;5108164;28;20048;-81
2021/12/07 00:32:49;;;;;;;4.10;3.67;;;1.80;99.90;;;;;;5089968;28;19962;-80
2021/12/07 00:37:39;;;;;;;5.53;3.50;;;1.70;99.90;;;;;;5081583;28;20040;-81
2021/12/07 00:40:08;;;;;;;4.65;4.25;;;1.60;99.90;;;;;;5075727;28;20050;-81
2021/12/07 00:42:33;;;;;;;5.47;4.97;;;1.70;99.90;;;;;;5122101;28;20461;-81
2021/12/07 00:45:00;;;;;;;9.45;4.47;;;1.70;99.90;;;;;;5092424;28;20068;-80
2021/12/07 00:47:29;;;;;;;7.25;4.68;;;1.60;99.90;;;;;;5091536;28;20423;-80
2021/12/07 00:49:55;;;;;;;7.20;5.28;;;1.60;99.90;;;;;;5127670;28;20040;-83
2021/12/07 00:52:21;;;;;;;12.48;5.60;;;1.60;99.90;;;;;;5092461;28;20036;-81
2021/12/07 00:54:46;;;;;;;11.30;5.30;;;1.60;99.90;;;;;;5101939;28;20127;-80
2021/12/07 00:57:12;;;;;;;8.73;4.03;;;1.50;99.90;;;;;;5090888;28;20039;-81
2021/12/07 00:59:38;;;;;;;4.15;3.55;;;1.40;99.90;;;;;;5124461;28;20050;-81
2021/12/07 01:02:04;;;;;;;8.40;3.95;;;2.10;99.90;;;;;;5125210;28;20497;-83
2021/12/07 01:04:31;;;;;;;;;;;1.40;99.90;;;;;;5082119;28;20040;-82
2021/12/07 01:07:04;;;;;;;3.00;2.80;;;1.30;99.90;;;;;;5092323;28;19920;-83
2021/12/07 01:25:49;;;;;;;6.47;4.32;;;0.90;99.90;;;;;;5125864;28;20062;-84
2021/12/07 01:28:30;;;;;;;3.97;3.50;;;0.90;99.90;;;;;;5078092;28;20058;-82
2021/12/07 01:33:48;;;;;;;3.45;3.15;;;0.80;99.90;;;;;;5092805;28;20400;-83
2021/12/07 02:00:18;;;;;;;5.53;4.15;;;0.70;99.90;;;;;;5128007;27;20044;-85
2021/12/07 02:02:45;;;;;;;4.65;3.55;;;0.80;99.90;;;;;;5092883;28;20048;-84
2021/12/07 02:05:11;;;;;;;6.68;4.63;;;0.80;99.90;;;;;;5111219;28;20431;-86
2021/12/07 02:07:38;;;;;;;4.53;3.40;;;0.80;99.90;;;;;;5093364;28;20123;-85
2021/12/07 02:10:10;;;;;;;10.93;4.47;;;1.10;99.90;;;;;;5127467;27;20059;-83
2021/12/07 02:12:43;;;;;;;4.43;4.03;;;0.80;99.90;;;;;;5049465;28;20048;-84
2021/12/07 02:15:12;;;;;;;9.65;4.35;;;0.80;99.90;;;;;;5087936;28;20090;-83
2021/12/07 02:17:38;;;;;;;3.65;3.35;;;0.70;99.90;;;;;;5093132;28;20032;-86
2021/12/07 02:20:05;;;;;;;3.85;3.50;;;0.80;99.90;;;;;;5077596;28;20048;-84
2021/12/07 02:22:31;;;;;;;7.65;3.35;;;0.80;99.90;;;;;;5076773;28;20052;-85
2021/12/07 02:24:57;;;;;;;5.88;3.83;;;0.80;99.90;;;;;;5093608;28;20088;-86
2021/12/07 02:27:23;;;;;;;11.63;4.40;;;1.50;99.90;;;;;;5076954;28;20659;-84
2021/12/07 02:29:49;;;;;;;7.88;5.20;;;0.80;99.90;;;;;;5093460;28;20078;-84
2021/12/07 02:32:15;;;;;;;6.03;4.68;;;0.90;99.90;;;;;;5109876;28;20048;-82
2021/12/07 02:34:52;;;;;;;5.95;3.72;;;0.90;99.90;;;;;;5092647;28;20097;-82
2021/12/07 02:37:21;;;;;;;5.63;4.03;;;1.00;99.90;;;;;;5107878;27;20051;-83
2021/12/07 02:39:49;;;;;;;7.22;4.72;;;0.90;99.90;;;;;;5092251;28;20746;-81
2021/12/07 02:42:16;;;;;;;3.95;2.90;;;0.90;99.90;;;;;;5126770;27;20477;-83
2021/12/07 02:44:42;;;;;;;8.27;3.67;;;2.60;99.90;;;;;;5125890;27;20032;-82
2021/12/07 02:47:08;;;;;;;5.07;3.47;;;1.00;99.90;;;;;;5089176;28;20032;-82
2021/12/07 02:49:34;;;;;;;5.78;4.40;;;0.90;99.90;;;;;;5092537;28;20051;-82
2021/12/07 02:52:02;;;;;;;5.05;4.55;;;2.10;99.90;;;;;;5111462;27;20554;-81
2021/12/07 02:54:28;;;;;;;4.35;3.13;;;1.00;99.90;;;;;;5074997;28;20101;-82
2021/12/07 02:56:54;;;;;;;;;;;1.60;99.90;;;;;;5091706;28;20036;-81
2021/12/07 02:59:21;;;;;;;12.60;3.42;;;1.10;99.90;;;;;;5088248;28;20052;-81
2021/12/07 03:01:55;;;;;;;8.43;5.68;;;1.10;99.90;;;;;;5123555;27;20043;-80
2021/12/07 03:04:26;;;;;;;4.13;3.78;;;1.10;99.90;;;;;;5083326;28;20036;-81
2021/12/07 03:28:20;;;;;;;8.60;5.57;;;1.00;99.90;;;;;;5106007;28;20055;-79
2021/12/07 03:30:45;;;;;;;5.38;3.92;;;1.00;99.90;;;;;;5124849;27;20039;-80
2021/12/07 03:33:12;;;;;;;3.55;3.10;;;1.00;99.90;;;;;;5108312;28;20357;-79
2021/12/07 03:35:38;;;;;;;3.80;3.38;;;0.90;99.90;;;;;;5076612;28;20044;-80
2021/12/07 03:38:06;;;;;;;3.85;3.47;;;0.90;99.90;;;;;;5094137;28;20076;-80
2021/12/07 03:40:33;;;;;;;3.22;2.53;;;0.90;99.90;;;;;;5091334;28;20045;-81
2021/12/07 03:42:59;;;;;;;4.85;4.22;;;0.90;99.90;;;;;;5089588;28;20041;-80
2021/12/07 03:45:26;;;;;;;5.43;2.97;;;0.90;99.90;;;;;;5111618;28;20169;-80
2021/12/07 03:47:53;;;;;;;6.10;4.85;;;0.90;99.90;;;;;;5124783;27;20036;-81
2021/12/07 03:50:21;;;;;;;5.78;4.15;;;0.90;99.90;;;;;;5091967;28;20073;-80
2021/12/07 03:52:49;;;;;;;3.97;3.28;;;0.90;99.90;;;;;;5126325;27;20090;-80
2021/12/07 03:55:15;;;;;;;2.63;2.42;;;0.80;99.90;;;;;;5125418;27;20188;-80
2021/12/07 03:57:40;;;;;;;7.63;4.47;;;0.80;99.90;;;;;;5104914;28;20464;-80
2021/12/07 04:00:09;;;;;;;6.70;4.95;;;0.80;99.90;;;;;;5097077;28;20048;-80
2021/12/07 04:02:40;;;;;;;6.28;2.53;;;0.70;99.90;;;;;;5090691;28;20038;-80
2021/12/07 04:05:12;;;;;;;8.02;4.70;;;0.80;99.90;;;;;;5123063;27;20477;-81
2021/12/07 04:07:38;;;;;;;6.72;3.58;;;1.30;99.90;;;;;;5121029;27;20046;-81
2021/12/07 04:10:04;;;;;;;;;;;0.80;99.90;;;;;;5090607;28;20119;-81
2021/12/07 04:12:30;;;;;;;5.37;2.30;;;0.80;99.90;;;;;;5083404;28;19965;-80
2021/12/07 04:14:56;;;;;;;4.97;2.75;;;0.70;99.90;;;;;;5089514;28;20478;-81
2021/12/07 04:17:22;;;;;;;4.97;3.67;;;0.70;99.90;;;;;;5072811;28;20043;-80
2021/12/07 04:19:47;;;;;;;8.52;3.92;;;0.60;99.90;;;;;;5089595;28;20561;-80
2021/12/07 04:22:13;;;;;;;6.07;3.60;;;0.50;99.90;;;;;;5090351;28;20121;-81
2021/12/07 04:24:39;;;;;;;2.88;2.58;;;0.50;99.90;;;;;;5090341;28;20036;-80
2021/12/07 04:27:05;;;;;;;6.65;3.53;;;0.40;99.90;;;;;;5088548;28;20090;-80
2021/12/07 04:29:31;;;;;;;;;;;0.40;99.90;;;;;;5110308;28;20075;-80
2021/12/07 04:31:57;;;;;;;7.15;1.52;;;0.40;99.90;;;;;;5122405;28;19986;-80
2021/12/07 04:34:22;;;;;;;7.93;3.70;;;0.30;99.90;;;;;;5090429;28;20032;-81
2021/12/07 04:36:48;;;;;;;5.38;3.13;;;0.30;99.90;;;;;;5124235;28;20389;-80
2021/12/07 04:39:14;;;;;;;3.15;2.60;;;0.30;99.90;;;;;;5119415;28;20045;-80
2021/12/07 04:41:43;;;;;;;3.53;3.22;;;0.30;99.90;;;;;;5090030;28;20486;-80
2021/12/07 04:44:09;;;;;;;2.55;2.35;;;0.30;99.90;;;;;;5088837;28;20047;-82
2021/12/07 04:46:46;;;;;;;;;;;0.40;99.90;;;;;;5122903;28;20944;-80
2021/12/07 05:00:11;;;;;;;4.55;3.92;;;0.30;99.90;;;;;;5118440;28;21042;-80
2021/12/07 05:02:38;;;;;;;2.42;2.22;;;0.30;99.90;;;;;;5088908;28;20044;-80
2021/12/07 05:05:04;;;;;;;2.92;1.95;;;0.30;99.90;;;;;;5090336;28;20040;-80
2021/12/07 05:07:37;;;;;;;;;;;0.30;99.90;;;;;;5090060;28;20044;-80
2021/12/07 05:15:55;;;;;;;1.90;1.80;;;0.20;99.90;;;;;;5126992;27;20044;-80
2021/12/07 05:24:07;;;;;;;2.47;2.30;;;0.30;99.90;;;;;;5094433;28;20240;-80
2021/12/07 05:40:30;;;;;;;6.55;1.65;;;0.70;99.90;;;;;;5098543;28;20050;-81
2021/12/07 05:42:57;;;;;;;3.50;2.78;;;0.70;99.90;;;;;;5089915;28;20040;-80
2021/12/07 05:45:27;;;;;;;3.47;2.45;;;0.70;99.90;;;;;;5093766;28;20400;-80
2021/12/07 05:47:54;;;;;;;4.53;3.05;;;0.70;99.90;;;;;;5114236;27;20165;-81
2021/12/07 05:50:24;;;;;;;10.32;3.95;;;0.70;99.90;;;;;;5094284;28;20046;-80
2021/12/07 05:52:50;;;;;;;3.20;2.47;;;0.70;99.90;;;;;;5092831;28;20044;-80
2021/12/07 05:55:16;;;;;;;10.20;3.55;;;0.70;99.90;;;;;;5094905;28;20055;-81
2021/12/07 05:57:42;;;;;;;2.75;2.40;;;0.70;99.90;;;;;;5104941;28;20032;-81
2021/12/07 06:00:13;;;;;;;7.78;3.28;;;0.70;99.90;;;;;;5092777;28;20040;-80
2021/12/07 06:02:39;;;;;;;6.43;2.40;;;0.90;99.90;;;;;;5093193;28;20048;-80
2021/12/07 06:05:05;;;;;;;7.45;3.22;;;0.90;99.90;;;;;;5076945;28;20085;-80
2021/12/07 06:07:31;;;;;;;3.38;2.55;;;1.00;99.90;;;;;;5084283;28;20040;-81
2021/12/07 06:09:57;;;;;;;3.55;3.25;;;1.10;99.90;;;;;;5070839;28;20050;-80
2021/12/07 06:12:22;;;;;;;5.70;3.50;;;1.10;99.90;;;;;;5097284;28;20043;-81
2021/12/07 06:14:48;;;;;;;5.22;3.65;;;1.20;99.90;;;;;;5099936;28;20453;-81
2021/12/07 06:17:14;;;;;;;6.68;3.40;;;1.10;99.90;;;;;;5110087;28;20056;-81
2021/12/07 06:19:40;;;;;;;2.80;2.55;;;1.20;99.90;;;;;;5094998;28;20059;-82
2021/12/07 06:22:06;;;;;;;;;;;1.30;99.90;;;;;;5095014;28;20063;-81
2021/12/07 06:24:33;;;;;;;8.90;3.70;;;1.40;99.90;;;;;;5110336;28;20006;-81
2021/12/07 06:26:59;;;;;;;5.57;2.85;;;1.40;99.90;;;;;;5127463;27;20040;-82
2021/12/07 06:29:27;;;;;;;;;;;1.40;99.90;;;;;;5094974;28;20119;-80
2021/12/07 06:31:53;;;;;;;6.03;2.97;;;1.30;99.90;;;;;;5066444;28;20576;-77
2021/12/07 06:34:20;;;;;;;3.97;2.55;;;1.30;99.90;;;;;;5086488;28;20040;-78
2021/12/07 06:36:46;;;;;;;3.97;2.83;;;2.20;99.90;;;;;;5055338;28;20050;-77
2021/12/07 06:39:12;;;;;;;4.53;2.50;;;1.30;99.90;;;;;;5091413;28;20157;-77
2021/12/07 06:41:38;;;;;;;2.58;2.38;;;1.10;99.90;;;;;;5090661;28;20051;-77
2021/12/07 06:44:04;;;;;;;2.95;1.50;;;1.00;99.90;;;;;;5056646;28;20044;-77
2021/12/07 06:46:30;;;;;;;;;;;1.10;99.90;;;;;;5090478;28;20071;-78
2021/12/07 06:48:56;;;;;;;5.18;2.65;;;1.00;99.90;;;;;;5090311;28;19958;-78
2021/12/07 06:51:22;;;;;;;3.08;2.30;;;1.00;99.90;;;;;;5107858;28;20055;-77
2021/12/07 06:53:48;;;;;;;2.17;1.98;;;1.50;99.90;;;;;;5072768;28;20047;-77
2021/12/07 06:56:14;;;;;;;3.00;2.80;;;1.10;99.90;;;;;;5113399;27;20048;-78
2021/12/07 06:58:39;;;;;;;1.98;1.60;;;1.70;99.90;;;;;;5124271;27;20043;-78
2021/12/07 07:01:07;;;;;;;2.63;2.15;;;1.10;99.90;;;;;;5074997;28;20037;-79
2021/12/07 07:03:34;;;;;;;3.03;1.80;;;1.10;99.90;;;;;;5068689;28;20098;-77
2021/12/07 07:06:01;;;;;;;3.83;2.95;;;1.00;99.90;;;;;;5090119;28;20044;-77
2021/12/07 07:08:26;;;;;;;3.00;2.70;;;0.90;99.90;;;;;;5073273;28;20040;-77
2021/12/07 07:10:52;;;;;;;2.10;1.98;;;1.40;99.90;;;;;;5122597;27;20084;-79
2021/12/07 07:13:18;;;;;;;2.72;2.50;;;1.00;99.90;;;;;;5073489;28;20198;-81
2021/12/07 07:15:44;;;;;;;5.70;2.58;;;1.00;99.90;;;;;;5123746;27;20050;-77
2021/12/07 07:18:10;;;;;;;3.38;2.38;;;1.10;99.90;;;;;;5087675;28;20044;-75
2021/12/07 07:20:36;;;;;;;2.92;2.55;;;1.20;99.90;;;;;;5072459;28;20050;-76
2021/12/07 07:23:03;;;;;;;4.38;2.50;;;1.20;99.90;;;;;;5096589;28;20406;-77
2021/12/07 07:25:29;;;;;;;4.88;2.45;;;1.90;99.90;;;;;;5089636;28;20381;-77
2021/12/07 07:27:55;;;;;;;2.53;1.95;;;1.40;99.90;;;;;;5111668;27;20044;-77
2021/12/07 07:30:21;;;;;;;2.28;2.03;;;1.40;99.90;;;;;;5089464;28;20052;-79
2021/12/07 07:32:47;;;;;;;1.75;1.65;;;1.40;99.90;;;;;;5105021;28;20108;-79
2021/12/07 07:35:15;;;;;;;4.20;2.33;;;1.50;99.90;;;;;;5071875;28;20059;-78
2021/12/07 07:37:41;;;;;;;3.55;2.90;;;1.40;99.90;;;;;;5090772;28;20093;-78
2021/12/07 07:40:08;;;;;;;;;;;1.40;99.90;;;;;;5089734;28;20060;-78
2021/12/07 07:42:35;;;;;;;1.80;1.70;;;1.30;99.90;;;;;;5097462;28;19920;-79
2021/12/07 07:45:02;;;;;;;1.67;1.42;;;1.30;99.90;;;;;;5071920;28;20047;-78
2021/12/07 07:47:28;;;;;;;4.80;3.05;;;1.30;99.90;;;;;;5087180;28;20050;-78
2021/12/07 07:49:54;;;;;;;2.53;2.33;;;1.20;99.90;;;;;;5106502;28;20040;-78
2021/12/07 07:52:19;;;;;;;9.63;2.88;;;1.20;99.90;;;;;;5043788;28;20048;-78
2021/12/07 07:54:45;;;;;;;4.55;2.97;;;1.10;99.90;;;;;;5103371;28;20035;-78
2021/12/07 07:57:11;;;;;;;2.10;1.92;;;1.10;99.90;;;;;;5089679;28;20503;-78
2021/12/07 07:59:38;;;;;;;2.47;2.22;;;1.00;99.90;;;;;;5067553;28;20044;-78
2021/12/07 08:02:05;;;;;;;2.65;2.45;;;1.00;99.90;;;;;;5078217;28;20079;-78
2021/12/07 08:04:30;;;;;;;2.10;1.73;;;0.90;99.90;;;;;;5083089;28;20043;-77
2021/12/07 08:06:56;;;;;;;4.00;2.33;;;1.30;99.90;;;;;;5073854;28;20036;-76
2021/12/07 08:09:22;;;;;;;2.53;2.05;;;0.70;99.90;;;;;;5088995;28;20032;-81
2021/12/07 08:11:48;;;;;;;2.78;2.58;;;0.60;99.90;;;;;;5107634;28;20046;-79
2021/12/07 08:14:15;;;;;;;2.20;1.98;;;0.60;99.90;;;;;;5088281;28;20052;-81
2021/12/07 08:16:41;;;;;;;2.10;1.90;;;0.60;99.90;;;;;;5089256;28;20032;-80
2021/12/07 08:19:07;;;;;;;2.15;2.00;;;0.50;99.90;;;;;;5071071;28;20123;-81
2021/12/07 08:21:33;;;;;;;2.78;2.15;;;0.60;99.90;;;;;;5072424;28;20063;-76
2021/12/07 08:23:59;;;;;;;3.00;2.58;;;0.60;99.90;;;;;;5090182;28;20052;-79
2021/12/07 08:26:25;;;;;;;2.25;1.90;;;0.60;99.90;;;;;;5088332;28;20577;-77
2021/12/07 08:28:51;;;;;;;1.73;1.63;;;0.80;99.90;;;;;;5090007;28;20119;-77
2021/12/07 08:31:18;;;;;;;6.05;1.92;;;1.20;99.90;;;;;;5072142;28;20500;-78
2021/12/07 08:33:44;;;;;;;1.92;1.77;;;0.90;99.90;;;;;;5089771;28;20040;-79
2021/12/07 08:36:10;;;;;;;7.93;2.42;;;0.80;99.90;;;;;;5071847;28;20048;-77
2021/12/07 08:38:36;;;;;;;7.45;2.42;;;1.40;99.90;;;;;;5122601;28;20141;-77
2021/12/07 08:41:02;;;;;;;2.42;2.22;;;0.90;99.90;;;;;;5090856;28;20043;-79
2021/12/07 08:43:30;;;;;;;8.50;2.72;;;1.90;99.90;;;;;;5100887;28;20542;-79
2021/12/07 08:45:58;;;;;;;4.15;2.90;;;0.90;99.90;;;;;;5088772;28;20052;-80
2021/12/07 08:48:24;;;;;;;4.03;2.55;;;2.50;99.90;;;;;;5056417;28;20062;-80
2021/12/07 08:50:50;;;;;;;3.80;2.80;;;1.00;99.90;;;;;;5097347;28;20082;-79
2021/12/07 08:53:19;;;;;;;2.58;2.00;;;2.50;99.90;;;;;;5087744;28;20079;-81
2021/12/07 09:01:18;;;;;;;2.58;2.42;;;1.20;99.90;;;;;;5104375;27;20044;-80
2021/12/07 09:03:54;;;;;;;1.60;1.25;;;1.30;99.90;;;;;;5077377;28;20551;-77
2021/12/07 09:06:20;;;;;;;1.90;1.80;;;1.30;99.90;;;;;;5075809;28;20108;-78
2021/12/07 09:08:45;;;;;;;4.57;1.77;;;1.30;99.90;;;;;;5068166;28;20382;-80
2021/12/07 09:11:13;;;;;;;2.95;2.17;;;1.40;99.90;;;;;;5058971;28;20102;-78
2021/12/07 09:13:40;;;;;;;4.10;3.28;;;1.40;99.90;;;;;;5092731;28;20051;-80
2021/12/07 09:16:07;;;;;;;3.88;2.95;;;1.80;99.90;;;;;;5039631;28;20040;-80
2021/12/07 09:18:34;;;;;;;4.45;2.33;;;2.60;99.90;;;;;;5076627;28;20040;-80
2021/12/07 09:21:00;;;;;;;3.50;1.90;;;1.60;99.90;;;;;;5110243;28;20024;-78
2021/12/07 09:23:25;;;;;;;;;;;1.70;99.90;;;;;;5092769;28;20102;-79
2021/12/07 09:25:53;;;;;;;1.35;1.25;;;1.80;99.90;;;;;;5098172;28;19970;-78
2021/12/07 09:28:19;;;;;;;1.75;1.58;;;1.80;99.90;;;;;;5091778;28;20044;-80
2021/12/07 09:30:51;;;;;;;2.10;1.98;;;1.90;99.90;;;;;;5091358;28;20083;-78
2021/12/07 09:33:27;;;;;;;1.27;1.17;;;2.00;99.90;;;;;;5073264;28;20055;-78
2021/12/07 09:35:54;;;;;;;1.98;1.58;;;2.10;99.90;;;;;;5089826;28;20074;-85
2021/12/07 09:38:21;;;;;;;1.98;1.80;;;2.10;99.90;;;;;;5074438;28;20501;-78
2021/12/07 09:40:48;;;;;;;2.13;1.92;;;2.20;99.90;;;;;;5093194;28;20076;-79
2021/12/07 09:43:14;;;;;;;9.75;2.30;;;1.90;99.90;;;;;;5076888;28;20040;-78
2021/12/07 09:45:42;;;;;;;2.42;2.03;;;2.40;99.90;;;;;;5108777;28;20550;-79
2021/12/07 09:48:10;;;;;;;3.88;2.22;;;3.10;99.90;;;;;;5075297;28;20487;-80
2021/12/07 09:50:39;;;;;;;8.70;1.75;;;2.60;99.90;;;;;;5075903;28;20481;-80
2021/12/07 09:53:07;;;;;;;4.50;2.97;;;3.30;99.90;;;;;;5084285;28;20155;-80
2021/12/07 09:55:34;;;;;;;3.17;2.25;;;2.80;99.90;;;;;;5127931;27;20168;-80
2021/12/07 09:58:00;;;;;;;3.22;2.15;;;2.90;99.90;;;;;;5109035;28;20047;-77
2021/12/07 10:00:26;;;;;;;1.92;1.80;;;3.00;99.90;;;;;;5091338;28;20132;-81
2021/12/07 10:02:53;;;;;;;4.72;2.45;;;3.10;99.90;;;;;;5058881;28;20032;-77
2021/12/07 10:05:20;;;;;;;1.45;1.35;;;3.20;99.90;;;;;;5058945;28;20036;-80
2021/12/07 10:07:48;;;;;;;2.50;2.30;;;3.30;99.90;;;;;;5109057;28;20040;-80
2021/12/07 10:10:25;;;;;;;13.88;1.80;;;3.40;99.90;;;;;;5093054;28;20098;-78
2021/12/07 10:12:51;;;;;;;6.47;2.05;;;3.40;99.90;;;;;;5124829;27;20052;-80
2021/12/07 10:15:17;;;;;;;7.15;1.98;;;3.50;99.90;;;;;;5092708;28;20092;-81
2021/12/07 10:17:57;;;;;;;0.93;0.88;;;3.50;99.90;;;;;;5075141;28;20044;-79
2021/12/07 10:20:31;;;;;;;2.33;1.95;;;3.50;99.90;;;;;;5078101;28;20067;-80
2021/12/07 10:23:00;;;;;;;7.18;2.03;;;3.60;99.90;;;;;;5107520;28;20060;-79
2021/12/07 10:25:27;;;;;;;1.52;1.42;;;4.30;99.90;;;;;;5092811;28;20048;-78
2021/12/07 10:27:55;;;;;;;2.78;1.77;;;3.60;99.90;;;;;;5076687;28;20036;-80
2021/12/07 10:30:22;;;;;;;1.38;1.17;;;3.50;99.90;;;;;;5097735;28;20048;-78
2021/12/07 10:33:00;;;;;;;9.38;2.20;;;4.00;99.90;;;;;;5114538;28;20393;-78
2021/12/07 10:35:34;;;;;;;3.20;2.47;;;4.30;99.90;;;;;;5095148;28;20047;-78
2021/12/07 10:38:13;;;;;;;3.25;1.77;;;3.50;99.90;;;;;;5078455;28;20127;-79
2021/12/07 10:40:56;;;;;;;2.15;1.95;;;3.70;99.90;;;;;;5076840;28;20131;-79
2021/12/07 10:43:46;;;;;;;1.67;1.55;;;3.70;99.90;;;;;;5060956;28;20044;-78
2021/12/07 10:46:33;;;;;;;3.08;2.45;;;3.80;99.90;;;;;;5116045;27;20402;-81
2021/12/07 10:49:14;;;;;;;8.00;2.88;;;4.00;99.90;;;;;;5092186;28;20051;-80
2021/12/07 10:51:42;;;;;;;1.67;1.58;;;4.10;99.90;;;;;;5080582;28;20048;-79
2021/12/07 10:54:08;;;;;;;1.67;1.58;;;4.40;99.90;;;;;;5118905;27;20075;-80
2021/12/07 10:56:36;;;;;;;;;;;4.30;99.90;;;;;;5046028;28;20123;-78
2021/12/07 10:59:08;;;;;;;1.65;1.30;;;4.30;99.90;;;;;;5068221;28;19931;-80
2021/12/07 11:01:44;;;;;;;1.90;1.50;;;4.40;99.90;;;;;;5090897;28;20127;-77
2021/12/07 11:04:34;;;;;;;5.00;3.17;;;4.50;99.90;;;;;;5070555;28;20043;-80
2021/12/07 11:07:08;;;;;;;2.53;2.15;;;4.50;99.90;;;;;;5110591;28;20504;-80
2021/12/07 11:09:39;;;;;;;3.15;1.77;;;4.50;99.90;;;;;;5093230;28;20039;-82
2021/12/07 11:12:09;;;;;;;2.45;1.90;;;5.20;99.90;;;;;;5075339;28;20420;-78
2021/12/07 11:14:41;;;;;;;2.10;1.55;;;4.60;99.90;;;;;;5093418;28;20016;-81
2021/12/07 11:17:08;;;;;;;2.67;2.13;;;4.70;99.90;;;;;;5109143;28;20119;-78
2021/12/07 11:19:34;;;;;;;4.03;2.35;;;4.60;99.90;;;;;;5091143;28;20040;-79
2021/12/07 11:22:00;;;;;;;6.13;2.15;;;4.60;99.90;;;;;;5074306;28;20396;-78
2021/12/07 11:24:43;;;;;;;1.73;1.60;;;4.70;99.90;;;;;;5072723;28;20139;-79
2021/12/07 11:30:01;;;;;;;2.90;1.55;;;4.70;99.90;;;;;;5089727;28;20428;-81
2021/12/07 11:32:28;;;;;;;4.60;1.77;;;5.00;99.90;;;;;;5089860;28;20144;-80
2021/12/07 11:34:54;;;;;;;1.40;1.30;;;4.70;99.90;;;;;;5059932;28;20067;-77
2021/12/07 11:37:22;;;;;;;;;;;4.70;99.90;;;;;;5069550;28;20105;-78
2021/12/07 11:39:50;;;;;;;5.50;2.47;;;4.70;99.90;;;;;;5088519;28;19924;-78
2021/12/07 11:42:20;;;;;;;6.22;2.53;;;4.70;99.90;;;;;;5089056;28;20489;-78
2021/12/07 11:45:03;;;;;;;3.25;2.22;;;5.10;99.90;;;;;;5087740;28;20048;-78
2021/12/07 11:47:35;;;;;;;3.08;1.85;;;6.00;99.90;;;;;;5128033;27;20043;-78
2021/12/07 11:50:13;;;;;;;2.15;1.42;;;4.90;99.90;;;;;;5089343;28;20505;-78
2021/12/07 11:52:39;;;;;;;3.42;2.45;;;4.90;99.90;;;;;;5087307;28;20046;-80
2021/12/07 11:55:06;;;;;;;3.40;1.85;;;5.20;99.90;;;;;;5040450;28;20036;-79
2021/12/07 11:57:32;;;;;;;1.30;1.20;;;5.00;99.90;;;;;;5068959;27;20447;-79
2021/12/07 11:59:58;;;;;;;1.90;1.65;;;5.00;99.90;;;;;;5069153;28;20071;-82
2021/12/07 12:02:24;;;;;;;2.30;1.90;;;5.00;99.90;;;;;;5086411;28;20075;-81
2021/12/07 12:04:50;;;;;;;10.88;1.92;;;5.10;99.90;;;;;;5103794;28;20051;-79
2021/12/07 12:07:22;;;;;;;1.60;1.48;;;5.10;99.90;;;;;;5104781;27;20101;-79
2021/12/07 12:09:51;;;;;;;3.40;1.65;;;5.10;99.90;;;;;;5091258;28;20051;-78
2021/12/07 12:12:47;;;;;;;3.08;1.73;;;5.20;99.90;;;;;;5090814;28;20062;-84
2021/12/07 12:15:54;;;;;;;2.25;2.05;;;5.20;99.90;;;;;;5088757;28;20090;-80
2021/12/07 12:18:32;;;;;;;3.95;2.13;;;5.30;99.90;;;;;;5102594;28;20032;-82
2021/12/07 12:20:58;;;;;;;3.40;1.27;;;5.30;99.90;;;;;;5073726;28;20072;-84
2021/12/07 12:23:49;;;;;;;3.17;1.67;;;5.60;99.90;;;;;;5087576;28;20079;-77
2021/12/07 12:26:23;;;;;;;2.17;1.45;;;5.40;99.90;;;;;;5073432;28;20044;-76
2021/12/07 12:28:49;;;;;;;2.72;1.52;;;5.50;99.90;;;;;;5089018;28;20044;-78
2021/12/07 12:31:18;;;;;;;2.50;1.95;;;5.50;99.90;;;;;;5088849;28;20381;-80
2021/12/07 12:33:49;;;;;;;2.45;1.42;;;5.60;99.90;;;;;;5105481;28;20481;-79
2021/12/07 12:36:16;;;;;;;1.63;1.52;;;5.60;99.90;;;;;;5071862;28;20075;-78
2021/12/07 12:38:55;;;;;;;2.22;2.03;;;5.60;99.90;;;;;;5091782;28;20036;-78
2021/12/07 12:41:22;;;;;;;9.32;1.80;;;5.60;99.90;;;;;;5089187;28;20048;-76
2021/12/07 12:43:55;;;;;;;2.17;1.80;;;6.50;99.90;;;;;;5058155;28;20458;-81
2021/12/07 12:46:29;;;;;;;12.70;1.67;;;5.70;99.90;;;;;;5073306;28;20039;-78
2021/12/07 12:48:58;;;;;;;2.85;1.95;;;5.60;99.90;;;;;;5123024;28;20119;-79
2021/12/07 12:51:27;;;;;;;2.38;1.75;;;5.90;99.90;;;;;;5072300;28;20052;-79
2021/12/07 12:53:54;;;;;;;2.08;1.85;;;5.60;99.90;;;;;;5089199;28;20489;-79
2021/12/07 12:56:24;;;;;;;2.20;1.67;;;5.50;99.90;;;;;;5125082;27;20088;-78
2021/12/07 12:58:52;;;;;;;5.40;1.92;;;5.50;99.90;;;;;;5122023;28;20079;-76
2021/12/07 13:01:37;;;;;;;1.67;1.48;;;5.50;99.90;;;;;;5117053;28;20048;-77
2021/12/07 13:04:15;;;;;;;5.07;1.52;;;5.50;99.90;;;;;;5093312;28;20044;-81
2021/12/07 13:06:52;;;;;;;1.85;1.48;;;5.40;99.90;;;;;;5106855;28;20082;-78
2021/12/07 13:09:18;;;;;;;3.75;1.85;;;5.50;99.90;;;;;;5109473;28;20047;-79
2021/12/07 13:11:50;;;;;;;3.03;1.60;;;5.40;99.90;;;;;;5106275;28;20147;-77
2021/12/07 13:14:22;;;;;;;1.48;1.13;;;5.40;99.90;;;;;;5064144;28;20123;-78
2021/12/07 13:17:02;;;;;;;6.55;1.83;;;6.20;99.90;;;;;;5093484;28;20058;-78
2021/12/07 13:19:29;;;;;;;1.63;1.30;;;5.40;99.90;;;;;;5083333;28;20105;-79
2021/12/07 13:22:03;;;;;;;1.73;1.63;;;6.20;99.90;;;;;;5072717;28;20052;-78
2021/12/07 13:24:40;;;;;;;9.75;2.38;;;5.30;99.90;;;;;;5087373;28;20087;-78
2021/12/07 13:27:13;;;;;;;1.08;0.95;;;5.40;99.90;;;;;;5088755;28;20408;-81
2021/12/07 13:29:46;;;;;;;1.67;1.42;;;5.40;99.90;;;;;;5093208;28;20482;-82
2021/12/07 13:32:12;;;;;;;2.10;1.90;;;5.40;99.90;;;;;;5089255;28;20128;-80
2021/12/07 13:34:39;;;;;;;3.50;1.63;;;5.40;99.90;;;;;;5074103;28;20442;-78
2021/12/07 13:37:13;;;;;;;2.35;1.60;;;6.40;99.90;;;;;;5090503;28;20044;-80
2021/12/07 13:39:48;;;;;;;2.67;1.42;;;5.30;99.90;;;;;;5089876;28;20058;-78
2021/12/07 13:42:21;;;;;;;1.50;1.33;;;5.40;99.90;;;;;;5079791;28;20044;-80
2021/12/07 13:45:09;;;;;;;2.15;1.65;;;5.40;99.90;;;;;;5092636;28;20051;-81
2021/12/07 13:47:37;;;;;;;9.23;2.15;;;5.30;99.90;;;;;;5124964;27;20028;-79
2021/12/07 13:50:16;;;;;;;5.93;2.17;;;5.30;99.90;;;;;;5077185;28;20047;-79
2021/12/07 13:52:49;;;;;;;1.88;1.63;;;5.30;99.90;;;;;;5107083;28;20131;-80
2021/12/07 13:55:25;;;;;;;2.70;2.28;;;5.30;99.90;;;;;;5110445;28;20568;-81
2021/12/07 13:57:53;;;;;;;2.65;1.50;;;5.30;99.90;;;;;;5107913;28;20400;-83
2021/12/07 14:00:29;;;;;;;2.33;1.83;;;4.60;99.90;;;;;;5108366;28;20044;-80
2021/12/07 14:02:58;;;;;;;1.10;1.08;;;5.30;99.90;;;;;;5106942;28;20118;-80
2021/12/07 14:05:27;;;;;;;14.82;1.77;;;5.20;99.90;;;;;;5122913;27;20031;-77
2021/12/07 14:07:54;;;;;;;2.50;2.15;;;5.20;99.90;;;;;;5075681;28;20040;-79
2021/12/07 14:10:30;;;;;;;3.33;1.73;;;5.10;99.90;;;;;;5074025;28;20432;-78
2021/12/07 14:12:59;;;;;;;4.32;1.90;;;5.10;99.90;;;;;;5085832;28;20047;-79
2021/12/07 14:15:34;;;;;;;2.45;2.25;;;5.00;99.90;;;;;;5109740;28;20032;-78
2021/12/07 14:18:07;;;;;;;6.57;2.58;;;4.90;99.90;;;;;;5075292;28;20044;-79
2021/12/07 14:20:34;;;;;;;10.18;1.50;;;4.90;99.90;;;;;;5109004;28;20044;-79
2021/12/07 14:23:13;;;;;;;2.85;1.95;;;4.80;99.90;;;;;;5078823;28;20056;-78
2021/12/07 14:26:00;;;;;;;2.47;2.25;;;4.70;99.90;;;;;;5089993;28;20039;-79
2021/12/07 14:28:41;;;;;;;10.85;3.13;;;4.60;99.90;;;;;;5106212;28;20728;-80
2021/12/07 14:31:12;;;;;;;3.42;2.78;;;4.50;99.90;;;;;;5074656;28;20641;-78
2021/12/07 14:33:50;;;;;;;5.20;2.80;;;4.50;99.90;;;;;;5091393;28;20067;-79
2021/12/07 14:36:41;;;;;;;4.10;2.90;;;4.40;99.90;;;;;;5075373;28;20023;-78
2021/12/07 14:39:13;;;;;;;2.05;1.55;;;4.40;99.90;;;;;;5091514;28;20044;-78
2021/12/07 14:41:46;;;;;;;5.07;2.40;;;4.30;99.90;;;;;;5090070;28;20048;-78
2021/12/07 14:44:17;;;;;;;5.97;2.53;;;4.30;99.90;;;;;;5092588;28;20051;-80
2021/12/07 14:46:44;;;;;;;2.15;1.90;;;4.20;99.90;;;;;;5122629;27;20048;-78
2021/12/07 14:49:11;;;;;;;19.20;2.72;;;4.10;99.90;;;;;;5090647;28;20462;-78
2021/12/07 14:51:37;;;;;;;3.65;3.05;;;5.80;99.90;;;;;;5074007;28;20035;-78
2021/12/07 14:54:04;;;;;;;4.93;2.50;;;4.00;99.90;;;;;;5090516;28;20108;-79
2021/12/07 14:56:32;;;;;;;2.70;1.83;;;3.90;99.90;;;;;;5108884;28;20040;-77
2021/12/07 14:59:00;;;;;;;7.25;2.75;;;3.80;99.90;;;;;;5092648;28;20048;-77
2021/12/07 15:01:35;;;;;;;3.67;2.38;;;4.70;99.90;;;;;;5089794;28;20366;-77